sensor_id;sensor_type;location;lat;lon;timestamp;temperature;humidity
39931;DHT22;26635;-35.248;149.138;2022-12-18T00:00:33;19.90;57.80
39931;DHT22;26635;-35.248;149.138;2022-12-18T00:03:09;19.80;56.00
39931;DHT22;26635;-35.248;149.138;2022-12-18T00:05:51;19.80;57.60
39931;DHT22;26635;-35.248;149.138;2022-12-18T00:08:21;20.00;58.10
39931;DHT22;26635;-35.248;149.138;2022-12-18T00:10:55;20.10;58.50
39931;DHT22;26635;-35.248;149.138;2022-12-18T00:13:27;20.10;56.80
39931;DHT22;26635;-35.248;149.138;2022-12-18T00:16:03;20.10;56.00
39931;DHT22;26635;-35.248;149.138;2022-12-18T00:18:33;20.20;56.80
39931;DHT22;26635;-35.248;149.138;2022-12-18T00:21:06;20.20;55.90
39931;DHT22;26635;-35.248;149.138;2022-12-18T00:23:39;20.00;56.60
39931;DHT22;26635;-35.248;149.138;2022-12-18T00:28:49;20.00;56.60
39931;DHT22;26635;-35.248;149.138;2022-12-18T00:31:22;20.10;56.60
39931;DHT22;26635;-35.248;149.138;2022-12-18T00:33:57;20.40;56.20
39931;DHT22;26635;-35.248;149.138;2022-12-18T00:36:30;20.50;55.10
39931;DHT22;26635;-35.248;149.138;2022-12-18T00:39:03;20.50;55.30
39931;DHT22;26635;-35.248;149.138;2022-12-18T00:41:33;20.60;54.10
39931;DHT22;26635;-35.248;149.138;2022-12-18T00:44:22;20.70;55.30
39931;DHT22;26635;-35.248;149.138;2022-12-18T00:46:53;20.70;55.30
39931;DHT22;26635;-35.248;149.138;2022-12-18T00:49:23;20.80;55.10
39931;DHT22;26635;-35.248;149.138;2022-12-18T00:51:54;21.00;56.40
39931;DHT22;26635;-35.248;149.138;2022-12-18T00:54:24;21.30;54.80
39931;DHT22;26635;-35.248;149.138;2022-12-18T00:56:55;21.40;54.10
39931;DHT22;26635;-35.248;149.138;2022-12-18T00:59:25;21.60;53.10
39931;DHT22;26635;-35.248;149.138;2022-12-18T01:01:56;21.60;53.50
39931;DHT22;26635;-35.248;149.138;2022-12-18T01:04:26;21.60;53.40
39931;DHT22;26635;-35.248;149.138;2022-12-18T01:06:57;21.60;53.90
39931;DHT22;26635;-35.248;149.138;2022-12-18T01:09:28;21.60;54.10
39931;DHT22;26635;-35.248;149.138;2022-12-18T01:11:58;21.60;53.30
39931;DHT22;26635;-35.248;149.138;2022-12-18T01:14:29;21.60;54.20
39931;DHT22;26635;-35.248;149.138;2022-12-18T01:16:59;21.60;53.50
39931;DHT22;26635;-35.248;149.138;2022-12-18T01:19:32;21.60;53.20
39931;DHT22;26635;-35.248;149.138;2022-12-18T01:22:02;21.60;51.80
39931;DHT22;26635;-35.248;149.138;2022-12-18T01:24:33;21.40;51.70
39931;DHT22;26635;-35.248;149.138;2022-12-18T01:27:04;21.40;52.40
39931;DHT22;26635;-35.248;149.138;2022-12-18T01:29:35;21.40;52.30
39931;DHT22;26635;-35.248;149.138;2022-12-18T01:32:06;21.60;53.40
39931;DHT22;26635;-35.248;149.138;2022-12-18T01:34:38;21.60;53.00
39931;DHT22;26635;-35.248;149.138;2022-12-18T01:37:08;21.80;51.00
39931;DHT22;26635;-35.248;149.138;2022-12-18T01:39:39;22.00;51.80
39931;DHT22;26635;-35.248;149.138;2022-12-18T01:42:13;21.90;49.80
39931;DHT22;26635;-35.248;149.138;2022-12-18T01:47:49;21.90;50.20
39931;DHT22;26635;-35.248;149.138;2022-12-18T01:50:33;21.90;51.90
39931;DHT22;26635;-35.248;149.138;2022-12-18T01:53:11;22.10;52.50
39931;DHT22;26635;-35.248;149.138;2022-12-18T01:55:56;22.20;53.30
39931;DHT22;26635;-35.248;149.138;2022-12-18T01:58:41;22.40;51.40
39931;DHT22;26635;-35.248;149.138;2022-12-18T02:01:16;22.60;52.80
39931;DHT22;26635;-35.248;149.138;2022-12-18T02:03:48;22.60;51.50
39931;DHT22;26635;-35.248;149.138;2022-12-18T02:06:37;22.50;51.50
39931;DHT22;26635;-35.248;149.138;2022-12-18T02:09:20;22.50;52.10
39931;DHT22;26635;-35.248;149.138;2022-12-18T02:12:21;22.60;51.30
39931;DHT22;26635;-35.248;149.138;2022-12-18T02:18:06;22.80;51.20
39931;DHT22;26635;-35.248;149.138;2022-12-18T02:24:17;22.90;52.50
39931;DHT22;26635;-35.248;149.138;2022-12-18T02:26:59;23.00;51.90
39931;DHT22;26635;-35.248;149.138;2022-12-18T02:29:36;22.90;50.30
39931;DHT22;26635;-35.248;149.138;2022-12-18T02:32:15;22.80;51.30
39931;DHT22;26635;-35.248;149.138;2022-12-18T02:34:49;22.90;52.20
39931;DHT22;26635;-35.248;149.138;2022-12-18T02:37:21;22.90;51.70
39931;DHT22;26635;-35.248;149.138;2022-12-18T02:39:54;22.90;51.00
39931;DHT22;26635;-35.248;149.138;2022-12-18T02:42:27;23.00;51.40
39931;DHT22;26635;-35.248;149.138;2022-12-18T02:44:58;22.80;50.70
39931;DHT22;26635;-35.248;149.138;2022-12-18T02:47:31;22.90;51.00
39931;DHT22;26635;-35.248;149.138;2022-12-18T02:56:10;23.20;52.10
39931;DHT22;26635;-35.248;149.138;2022-12-18T02:59:02;23.10;50.00
39931;DHT22;26635;-35.248;149.138;2022-12-18T03:01:50;23.10;50.40
39931;DHT22;26635;-35.248;149.138;2022-12-18T03:04:48;23.00;50.30
39931;DHT22;26635;-35.248;149.138;2022-12-18T03:07:34;23.00;51.40
39931;DHT22;26635;-35.248;149.138;2022-12-18T03:10:07;23.00;51.30
39931;DHT22;26635;-35.248;149.138;2022-12-18T03:12:47;23.00;51.00
39931;DHT22;26635;-35.248;149.138;2022-12-18T03:15:23;23.00;51.50
39931;DHT22;26635;-35.248;149.138;2022-12-18T03:18:12;23.10;50.20
39931;DHT22;26635;-35.248;149.138;2022-12-18T03:20:44;23.10;51.70
39931;DHT22;26635;-35.248;149.138;2022-12-18T03:23:23;23.20;50.20
39931;DHT22;26635;-35.248;149.138;2022-12-18T03:25:57;23.10;50.20
39931;DHT22;26635;-35.248;149.138;2022-12-18T03:28:37;23.00;49.60
39931;DHT22;26635;-35.248;149.138;2022-12-18T03:31:10;23.20;51.60
39931;DHT22;26635;-35.248;149.138;2022-12-18T03:33:51;23.30;51.30
39931;DHT22;26635;-35.248;149.138;2022-12-18T03:36:24;23.30;50.90
39931;DHT22;26635;-35.248;149.138;2022-12-18T03:38:56;23.20;49.80
39931;DHT22;26635;-35.248;149.138;2022-12-18T03:41:42;23.20;51.90
39931;DHT22;26635;-35.248;149.138;2022-12-18T03:44:24;23.20;49.70
39931;DHT22;26635;-35.248;149.138;2022-12-18T03:49:50;23.10;50.90
39931;DHT22;26635;-35.248;149.138;2022-12-18T03:52:33;23.10;51.10
39931;DHT22;26635;-35.248;149.138;2022-12-18T03:55:07;23.10;51.00
39931;DHT22;26635;-35.248;149.138;2022-12-18T03:57:39;23.10;51.80
39931;DHT22;26635;-35.248;149.138;2022-12-18T04:00:17;23.00;52.50
39931;DHT22;26635;-35.248;149.138;2022-12-18T04:02:52;23.20;53.50
39931;DHT22;26635;-35.248;149.138;2022-12-18T04:05:25;23.20;51.20
39931;DHT22;26635;-35.248;149.138;2022-12-18T04:07:57;23.20;51.60
39931;DHT22;26635;-35.248;149.138;2022-12-18T04:10:28;23.10;51.30
39931;DHT22;26635;-35.248;149.138;2022-12-18T04:12:59;23.20;51.00
39931;DHT22;26635;-35.248;149.138;2022-12-18T04:15:33;23.10;50.20
39931;DHT22;26635;-35.248;149.138;2022-12-18T04:18:07;22.90;49.80
39931;DHT22;26635;-35.248;149.138;2022-12-18T04:20:41;22.80;50.80
39931;DHT22;26635;-35.248;149.138;2022-12-18T04:23:12;22.80;52.10
39931;DHT22;26635;-35.248;149.138;2022-12-18T04:25:42;23.00;51.40
39931;DHT22;26635;-35.248;149.138;2022-12-18T04:28:14;22.90;49.60
39931;DHT22;26635;-35.248;149.138;2022-12-18T04:30:48;22.90;49.30
39931;DHT22;26635;-35.248;149.138;2022-12-18T04:33:19;22.80;50.60
39931;DHT22;26635;-35.248;149.138;2022-12-18T04:35:51;22.80;50.60
39931;DHT22;26635;-35.248;149.138;2022-12-18T04:38:21;22.70;49.20
39931;DHT22;26635;-35.248;149.138;2022-12-18T04:40:51;22.60;49.30
39931;DHT22;26635;-35.248;149.138;2022-12-18T04:43:21;22.60;48.30
39931;DHT22;26635;-35.248;149.138;2022-12-18T04:45:52;22.50;50.10
39931;DHT22;26635;-35.248;149.138;2022-12-18T04:48:22;22.50;51.80
39931;DHT22;26635;-35.248;149.138;2022-12-18T04:50:52;22.40;50.50
39931;DHT22;26635;-35.248;149.138;2022-12-18T04:53:23;22.50;51.80
39931;DHT22;26635;-35.248;149.138;2022-12-18T04:56:26;22.60;51.60
39931;DHT22;26635;-35.248;149.138;2022-12-18T04:58:56;22.80;50.80
39931;DHT22;26635;-35.248;149.138;2022-12-18T05:01:27;22.90;51.50
39931;DHT22;26635;-35.248;149.138;2022-12-18T05:04:02;23.10;51.10
39931;DHT22;26635;-35.248;149.138;2022-12-18T05:06:32;23.30;50.30
39931;DHT22;26635;-35.248;149.138;2022-12-18T05:09:05;23.20;52.10
39931;DHT22;26635;-35.248;149.138;2022-12-18T05:11:36;23.10;51.20
39931;DHT22;26635;-35.248;149.138;2022-12-18T05:14:07;22.90;50.60
39931;DHT22;26635;-35.248;149.138;2022-12-18T05:16:38;22.80;50.40
39931;DHT22;26635;-35.248;149.138;2022-12-18T05:19:08;22.80;51.90
39931;DHT22;26635;-35.248;149.138;2022-12-18T05:21:41;22.80;51.80
39931;DHT22;26635;-35.248;149.138;2022-12-18T05:24:13;22.70;50.70
39931;DHT22;26635;-35.248;149.138;2022-12-18T05:26:43;22.70;53.00
39931;DHT22;26635;-35.248;149.138;2022-12-18T05:29:15;22.60;51.60
39931;DHT22;26635;-35.248;149.138;2022-12-18T05:31:45;22.40;52.50
39931;DHT22;26635;-35.248;149.138;2022-12-18T05:34:16;22.10;53.30
39931;DHT22;26635;-35.248;149.138;2022-12-18T05:36:47;21.90;53.10
39931;DHT22;26635;-35.248;149.138;2022-12-18T05:39:17;21.70;52.90
39931;DHT22;26635;-35.248;149.138;2022-12-18T05:41:48;21.50;52.40
39931;DHT22;26635;-35.248;149.138;2022-12-18T05:44:18;21.30;53.20
39931;DHT22;26635;-35.248;149.138;2022-12-18T05:46:49;21.20;53.40
39931;DHT22;26635;-35.248;149.138;2022-12-18T05:49:20;21.10;55.40
39931;DHT22;26635;-35.248;149.138;2022-12-18T05:51:50;21.00;54.40
39931;DHT22;26635;-35.248;149.138;2022-12-18T05:54:20;21.00;56.30
39931;DHT22;26635;-35.248;149.138;2022-12-18T05:56:51;20.90;55.00
39931;DHT22;26635;-35.248;149.138;2022-12-18T05:59:21;20.90;55.10
39931;DHT22;26635;-35.248;149.138;2022-12-18T06:01:51;20.90;56.60
39931;DHT22;26635;-35.248;149.138;2022-12-18T06:04:22;20.90;57.80
39931;DHT22;26635;-35.248;149.138;2022-12-18T06:06:52;20.90;56.40
39931;DHT22;26635;-35.248;149.138;2022-12-18T06:09:23;20.90;56.80
39931;DHT22;26635;-35.248;149.138;2022-12-18T06:11:54;20.90;57.70
39931;DHT22;26635;-35.248;149.138;2022-12-18T06:14:24;21.00;58.10
39931;DHT22;26635;-35.248;149.138;2022-12-18T06:16:55;21.10;56.80
39931;DHT22;26635;-35.248;149.138;2022-12-18T06:19:26;21.20;56.20
39931;DHT22;26635;-35.248;149.138;2022-12-18T06:21:57;21.20;55.80
39931;DHT22;26635;-35.248;149.138;2022-12-18T06:24:29;21.10;56.40
39931;DHT22;26635;-35.248;149.138;2022-12-18T06:27:01;21.00;55.80
39931;DHT22;26635;-35.248;149.138;2022-12-18T06:29:31;20.90;55.70
39931;DHT22;26635;-35.248;149.138;2022-12-18T06:32:03;20.80;57.30
39931;DHT22;26635;-35.248;149.138;2022-12-18T06:34:34;20.80;57.40
39931;DHT22;26635;-35.248;149.138;2022-12-18T06:37:06;20.70;57.10
39931;DHT22;26635;-35.248;149.138;2022-12-18T06:39:37;20.80;56.70
39931;DHT22;26635;-35.248;149.138;2022-12-18T06:42:07;20.70;56.00
39931;DHT22;26635;-35.248;149.138;2022-12-18T06:44:38;20.60;55.80
39931;DHT22;26635;-35.248;149.138;2022-12-18T06:47:12;20.50;56.60
39931;DHT22;26635;-35.248;149.138;2022-12-18T06:49:45;20.40;56.00
39931;DHT22;26635;-35.248;149.138;2022-12-18T06:52:17;20.30;56.80
39931;DHT22;26635;-35.248;149.138;2022-12-18T06:54:48;20.20;56.80
39931;DHT22;26635;-35.248;149.138;2022-12-18T06:57:19;20.00;57.40
39931;DHT22;26635;-35.248;149.138;2022-12-18T06:59:50;20.00;57.80
39931;DHT22;26635;-35.248;149.138;2022-12-18T07:02:21;20.00;59.20
39931;DHT22;26635;-35.248;149.138;2022-12-18T07:04:52;19.90;58.90
39931;DHT22;26635;-35.248;149.138;2022-12-18T07:07:23;19.80;58.70
39931;DHT22;26635;-35.248;149.138;2022-12-18T07:09:54;19.70;58.80
39931;DHT22;26635;-35.248;149.138;2022-12-18T07:12:26;19.50;58.30
39931;DHT22;26635;-35.248;149.138;2022-12-18T07:14:57;19.40;59.10
39931;DHT22;26635;-35.248;149.138;2022-12-18T07:17:28;19.30;58.90
39931;DHT22;26635;-35.248;149.138;2022-12-18T07:19:59;19.20;58.90
39931;DHT22;26635;-35.248;149.138;2022-12-18T07:22:29;19.10;60.20
39931;DHT22;26635;-35.248;149.138;2022-12-18T07:25:00;19.00;59.10
39931;DHT22;26635;-35.248;149.138;2022-12-18T07:27:31;19.00;59.90
39931;DHT22;26635;-35.248;149.138;2022-12-18T07:30:03;19.00;59.50
39931;DHT22;26635;-35.248;149.138;2022-12-18T07:32:34;18.90;59.60
39931;DHT22;26635;-35.248;149.138;2022-12-18T07:35:05;18.90;60.40
39931;DHT22;26635;-35.248;149.138;2022-12-18T07:37:35;18.90;60.20
39931;DHT22;26635;-35.248;149.138;2022-12-18T07:40:06;18.90;60.00
39931;DHT22;26635;-35.248;149.138;2022-12-18T07:42:38;18.90;59.60
39931;DHT22;26635;-35.248;149.138;2022-12-18T07:45:11;18.80;58.80
39931;DHT22;26635;-35.248;149.138;2022-12-18T07:47:42;18.60;59.40
39931;DHT22;26635;-35.248;149.138;2022-12-18T07:50:13;18.50;59.60
39931;DHT22;26635;-35.248;149.138;2022-12-18T07:52:44;18.50;60.80
39931;DHT22;26635;-35.248;149.138;2022-12-18T07:55:14;18.50;60.70
39931;DHT22;26635;-35.248;149.138;2022-12-18T07:57:44;18.50;60.90
39931;DHT22;26635;-35.248;149.138;2022-12-18T08:00:22;18.50;61.00
39931;DHT22;26635;-35.248;149.138;2022-12-18T08:02:56;18.40;60.70
39931;DHT22;26635;-35.248;149.138;2022-12-18T08:05:47;18.40;60.90
39931;DHT22;26635;-35.248;149.138;2022-12-18T08:08:38;18.40;60.90
39931;DHT22;26635;-35.248;149.138;2022-12-18T08:11:12;18.40;60.90
39931;DHT22;26635;-35.248;149.138;2022-12-18T08:13:44;18.40;60.80
39931;DHT22;26635;-35.248;149.138;2022-12-18T08:16:15;18.30;61.30
39931;DHT22;26635;-35.248;149.138;2022-12-18T08:18:48;18.30;61.70
39931;DHT22;26635;-35.248;149.138;2022-12-18T08:21:23;18.20;61.90
39931;DHT22;26635;-35.248;149.138;2022-12-18T08:23:58;18.10;61.30
39931;DHT22;26635;-35.248;149.138;2022-12-18T08:26:31;18.10;62.00
39931;DHT22;26635;-35.248;149.138;2022-12-18T08:29:04;18.00;61.80
39931;DHT22;26635;-35.248;149.138;2022-12-18T08:31:53;17.90;61.80
39931;DHT22;26635;-35.248;149.138;2022-12-18T08:34:35;17.90;62.50
39931;DHT22;26635;-35.248;149.138;2022-12-18T08:37:07;17.80;63.50
39931;DHT22;26635;-35.248;149.138;2022-12-18T08:40:08;17.80;63.30
39931;DHT22;26635;-35.248;149.138;2022-12-18T08:42:39;17.70;63.40
39931;DHT22;26635;-35.248;149.138;2022-12-18T08:45:28;17.60;64.60
39931;DHT22;26635;-35.248;149.138;2022-12-18T08:48:02;17.40;66.50
39931;DHT22;26635;-35.248;149.138;2022-12-18T08:50:36;17.40;68.20
39931;DHT22;26635;-35.248;149.138;2022-12-18T08:53:07;17.20;69.30
39931;DHT22;26635;-35.248;149.138;2022-12-18T08:55:37;17.10;69.90
39931;DHT22;26635;-35.248;149.138;2022-12-18T08:58:12;17.00;70.50
39931;DHT22;26635;-35.248;149.138;2022-12-18T09:00:43;16.90;71.20
39931;DHT22;26635;-35.248;149.138;2022-12-18T09:03:15;16.80;71.50
39931;DHT22;26635;-35.248;149.138;2022-12-18T09:05:46;16.70;71.80
39931;DHT22;26635;-35.248;149.138;2022-12-18T09:08:25;16.60;72.20
39931;DHT22;26635;-35.248;149.138;2022-12-18T09:10:56;16.50;72.60
39931;DHT22;26635;-35.248;149.138;2022-12-18T09:13:27;16.40;73.20
39931;DHT22;26635;-35.248;149.138;2022-12-18T09:15:59;16.40;73.30
39931;DHT22;26635;-35.248;149.138;2022-12-18T09:18:34;16.40;73.70
39931;DHT22;26635;-35.248;149.138;2022-12-18T09:21:13;16.30;73.50
39931;DHT22;26635;-35.248;149.138;2022-12-18T09:23:44;16.30;73.80
39931;DHT22;26635;-35.248;149.138;2022-12-18T09:26:15;16.30;74.20
39931;DHT22;26635;-35.248;149.138;2022-12-18T09:28:45;16.20;74.60
39931;DHT22;26635;-35.248;149.138;2022-12-18T09:31:17;16.10;75.10
39931;DHT22;26635;-35.248;149.138;2022-12-18T09:33:47;16.10;74.80
39931;DHT22;26635;-35.248;149.138;2022-12-18T09:36:19;16.00;75.00
39931;DHT22;26635;-35.248;149.138;2022-12-18T09:38:52;16.00;75.10
39931;DHT22;26635;-35.248;149.138;2022-12-18T09:41:34;16.00;75.70
39931;DHT22;26635;-35.248;149.138;2022-12-18T09:46:45;15.80;75.60
39931;DHT22;26635;-35.248;149.138;2022-12-18T09:49:18;15.80;75.60
39931;DHT22;26635;-35.248;149.138;2022-12-18T09:51:57;15.70;76.00
39931;DHT22;26635;-35.248;149.138;2022-12-18T09:54:39;15.60;75.80
39931;DHT22;26635;-35.248;149.138;2022-12-18T09:57:23;15.60;75.70
39931;DHT22;26635;-35.248;149.138;2022-12-18T10:00:04;15.50;76.30
39931;DHT22;26635;-35.248;149.138;2022-12-18T10:02:39;15.50;76.60
39931;DHT22;26635;-35.248;149.138;2022-12-18T10:14:51;15.20;77.70
39931;DHT22;26635;-35.248;149.138;2022-12-18T10:17:38;15.10;77.90
39931;DHT22;26635;-35.248;149.138;2022-12-18T10:20:22;15.10;78.50
39931;DHT22;26635;-35.248;149.138;2022-12-18T10:23:10;15.10;78.60
39931;DHT22;26635;-35.248;149.138;2022-12-18T10:28:27;15.00;78.60
39931;DHT22;26635;-35.248;149.138;2022-12-18T10:30:59;14.90;79.20
39931;DHT22;26635;-35.248;149.138;2022-12-18T10:33:32;14.90;79.30
39931;DHT22;26635;-35.248;149.138;2022-12-18T10:36:03;14.80;79.20
39931;DHT22;26635;-35.248;149.138;2022-12-18T10:38:35;14.80;79.20
39931;DHT22;26635;-35.248;149.138;2022-12-18T10:44:14;14.70;80.00
39931;DHT22;26635;-35.248;149.138;2022-12-18T10:46:48;14.60;80.20
39931;DHT22;26635;-35.248;149.138;2022-12-18T10:49:25;14.60;80.30
39931;DHT22;26635;-35.248;149.138;2022-12-18T10:52:18;14.60;80.70
39931;DHT22;26635;-35.248;149.138;2022-12-18T10:55:02;14.60;80.90
39931;DHT22;26635;-35.248;149.138;2022-12-18T10:57:38;14.50;80.80
39931;DHT22;26635;-35.248;149.138;2022-12-18T11:02:55;14.40;80.80
39931;DHT22;26635;-35.248;149.138;2022-12-18T11:05:29;14.40;81.10
39931;DHT22;26635;-35.248;149.138;2022-12-18T11:08:01;14.40;81.30
39931;DHT22;26635;-35.248;149.138;2022-12-18T11:10:37;14.30;81.40
39931;DHT22;26635;-35.248;149.138;2022-12-18T11:13:17;14.30;81.40
39931;DHT22;26635;-35.248;149.138;2022-12-18T11:15:49;14.30;81.00
39931;DHT22;26635;-35.248;149.138;2022-12-18T11:18:32;14.20;80.90
39931;DHT22;26635;-35.248;149.138;2022-12-18T11:21:11;14.20;81.00
39931;DHT22;26635;-35.248;149.138;2022-12-18T11:23:50;14.10;81.10
39931;DHT22;26635;-35.248;149.138;2022-12-18T11:26:34;14.10;80.40
39931;DHT22;26635;-35.248;149.138;2022-12-18T11:29:15;14.10;80.50
39931;DHT22;26635;-35.248;149.138;2022-12-18T11:31:48;14.00;80.50
39931;DHT22;26635;-35.248;149.138;2022-12-18T11:34:29;13.90;80.30
39931;DHT22;26635;-35.248;149.138;2022-12-18T11:37:03;13.90;81.10
39931;DHT22;26635;-35.248;149.138;2022-12-18T11:39:51;13.90;80.30
39931;DHT22;26635;-35.248;149.138;2022-12-18T11:42:48;13.80;80.60
39931;DHT22;26635;-35.248;149.138;2022-12-18T11:45:34;13.80;80.20
39931;DHT22;26635;-35.248;149.138;2022-12-18T11:48:14;13.80;80.30
39931;DHT22;26635;-35.248;149.138;2022-12-18T11:50:57;13.80;80.50
39931;DHT22;26635;-35.248;149.138;2022-12-18T11:53:30;13.70;80.50
39931;DHT22;26635;-35.248;149.138;2022-12-18T12:16:23;13.50;81.00
39931;DHT22;26635;-35.248;149.138;2022-12-18T12:25:01;13.50;81.40
39931;DHT22;26635;-35.248;149.138;2022-12-18T12:33:38;13.50;81.70
39931;DHT22;26635;-35.248;149.138;2022-12-18T12:39:34;13.40;81.60
39931;DHT22;26635;-35.248;149.138;2022-12-18T12:42:31;13.30;81.70
39931;DHT22;26635;-35.248;149.138;2022-12-18T12:46:11;13.30;81.90
39931;DHT22;26635;-35.248;149.138;2022-12-18T12:51:38;13.20;82.30
39931;DHT22;26635;-35.248;149.138;2022-12-18T12:54:17;13.30;82.10
39931;DHT22;26635;-35.248;149.138;2022-12-18T12:57:09;13.30;82.30
39931;DHT22;26635;-35.248;149.138;2022-12-18T13:00:01;13.20;82.30
39931;DHT22;26635;-35.248;149.138;2022-12-18T13:02:42;13.20;82.60
39931;DHT22;26635;-35.248;149.138;2022-12-18T13:05:25;13.10;82.30
39931;DHT22;26635;-35.248;149.138;2022-12-18T13:08:07;13.10;82.30
39931;DHT22;26635;-35.248;149.138;2022-12-18T13:10:42;13.00;82.40
39931;DHT22;26635;-35.248;149.138;2022-12-18T13:13:15;13.00;82.40
39931;DHT22;26635;-35.248;149.138;2022-12-18T13:16:11;13.00;82.60
39931;DHT22;26635;-35.248;149.138;2022-12-18T13:18:50;12.90;82.40
39931;DHT22;26635;-35.248;149.138;2022-12-18T13:21:33;12.90;82.30
39931;DHT22;26635;-35.248;149.138;2022-12-18T13:24:27;12.90;82.40
39931;DHT22;26635;-35.248;149.138;2022-12-18T13:27:00;12.90;81.90
39931;DHT22;26635;-35.248;149.138;2022-12-18T13:29:45;12.90;82.30
39931;DHT22;26635;-35.248;149.138;2022-12-18T13:32:25;12.90;81.60
39931;DHT22;26635;-35.248;149.138;2022-12-18T13:37:54;12.80;82.00
39931;DHT22;26635;-35.248;149.138;2022-12-18T13:46:50;12.80;82.30
39931;DHT22;26635;-35.248;149.138;2022-12-18T13:49:06;12.70;81.80
39931;DHT22;26635;-35.248;149.138;2022-12-18T13:51:54;12.70;81.10
39931;DHT22;26635;-35.248;149.138;2022-12-18T13:54:40;12.70;81.70
39931;DHT22;26635;-35.248;149.138;2022-12-18T13:57:34;12.70;81.50
39931;DHT22;26635;-35.248;149.138;2022-12-18T14:00:25;12.50;81.10
39931;DHT22;26635;-35.248;149.138;2022-12-18T14:02:58;12.60;80.70
39931;DHT22;26635;-35.248;149.138;2022-12-18T14:05:35;12.60;81.20
39931;DHT22;26635;-35.248;149.138;2022-12-18T14:08:15;12.60;80.60
39931;DHT22;26635;-35.248;149.138;2022-12-18T14:10:48;12.60;80.60
39931;DHT22;26635;-35.248;149.138;2022-12-18T14:15:58;12.50;80.30
39931;DHT22;26635;-35.248;149.138;2022-12-18T14:18:55;12.50;80.00
39931;DHT22;26635;-35.248;149.138;2022-12-18T14:21:46;12.60;80.40
39931;DHT22;26635;-35.248;149.138;2022-12-18T14:24:20;12.50;80.10
39931;DHT22;26635;-35.248;149.138;2022-12-18T14:26:51;12.50;80.10
39931;DHT22;26635;-35.248;149.138;2022-12-18T14:29:23;12.50;79.50
39931;DHT22;26635;-35.248;149.138;2022-12-18T14:32:15;12.50;80.10
39931;DHT22;26635;-35.248;149.138;2022-12-18T14:34:50;12.50;79.60
39931;DHT22;26635;-35.248;149.138;2022-12-18T14:37:24;12.50;79.50
39931;DHT22;26635;-35.248;149.138;2022-12-18T14:40:01;12.40;79.80
39931;DHT22;26635;-35.248;149.138;2022-12-18T14:42:38;12.40;79.70
39931;DHT22;26635;-35.248;149.138;2022-12-18T14:45:37;12.50;79.10
39931;DHT22;26635;-35.248;149.138;2022-12-18T14:48:41;12.40;79.60
39931;DHT22;26635;-35.248;149.138;2022-12-18T14:51:20;12.30;79.50
39931;DHT22;26635;-35.248;149.138;2022-12-18T14:54:05;12.30;80.10
39931;DHT22;26635;-35.248;149.138;2022-12-18T14:56:47;12.20;81.50
39931;DHT22;26635;-35.248;149.138;2022-12-18T14:59:23;12.20;80.40
39931;DHT22;26635;-35.248;149.138;2022-12-18T15:04:37;12.20;79.90
39931;DHT22;26635;-35.248;149.138;2022-12-18T15:07:15;12.10;79.70
39931;DHT22;26635;-35.248;149.138;2022-12-18T15:13:15;12.10;79.40
39931;DHT22;26635;-35.248;149.138;2022-12-18T15:15:57;12.10;79.40
39931;DHT22;26635;-35.248;149.138;2022-12-18T15:18:34;12.10;79.30
39931;DHT22;26635;-35.248;149.138;2022-12-18T15:21:10;12.00;78.60
39931;DHT22;26635;-35.248;149.138;2022-12-18T15:23:46;12.00;79.00
39931;DHT22;26635;-35.248;149.138;2022-12-18T15:26:19;12.00;78.50
39931;DHT22;26635;-35.248;149.138;2022-12-18T15:28:56;11.90;79.10
39931;DHT22;26635;-35.248;149.138;2022-12-18T15:31:34;11.90;77.80
39931;DHT22;26635;-35.248;149.138;2022-12-18T15:34:17;11.80;78.80
39931;DHT22;26635;-35.248;149.138;2022-12-18T15:36:51;11.80;78.60
39931;DHT22;26635;-35.248;149.138;2022-12-18T15:39:21;11.80;78.00
39931;DHT22;26635;-35.248;149.138;2022-12-18T15:42:10;11.80;77.70
39931;DHT22;26635;-35.248;149.138;2022-12-18T15:45:18;11.80;78.00
39931;DHT22;26635;-35.248;149.138;2022-12-18T15:47:50;11.80;76.80
39931;DHT22;26635;-35.248;149.138;2022-12-18T15:50:22;11.80;76.90
39931;DHT22;26635;-35.248;149.138;2022-12-18T15:52:55;11.80;76.60
39931;DHT22;26635;-35.248;149.138;2022-12-18T15:55:27;11.80;76.60
39931;DHT22;26635;-35.248;149.138;2022-12-18T15:58:15;11.80;75.70
39931;DHT22;26635;-35.248;149.138;2022-12-18T16:00:46;11.80;75.70
39931;DHT22;26635;-35.248;149.138;2022-12-18T16:03:17;11.80;76.50
39931;DHT22;26635;-35.248;149.138;2022-12-18T16:05:47;11.80;76.40
39931;DHT22;26635;-35.248;149.138;2022-12-18T16:08:27;11.80;76.20
39931;DHT22;26635;-35.248;149.138;2022-12-18T16:10:59;11.80;76.60
39931;DHT22;26635;-35.248;149.138;2022-12-18T16:13:30;11.80;77.30
39931;DHT22;26635;-35.248;149.138;2022-12-18T16:16:00;11.80;76.10
39931;DHT22;26635;-35.248;149.138;2022-12-18T16:18:31;11.70;75.70
39931;DHT22;26635;-35.248;149.138;2022-12-18T16:21:01;11.70;76.70
39931;DHT22;26635;-35.248;149.138;2022-12-18T16:23:31;11.70;76.70
39931;DHT22;26635;-35.248;149.138;2022-12-18T16:26:02;11.70;76.40
39931;DHT22;26635;-35.248;149.138;2022-12-18T16:28:34;11.70;76.10
39931;DHT22;26635;-35.248;149.138;2022-12-18T16:31:10;11.70;75.90
39931;DHT22;26635;-35.248;149.138;2022-12-18T16:33:41;11.70;76.20
39931;DHT22;26635;-35.248;149.138;2022-12-18T16:36:11;11.70;77.20
39931;DHT22;26635;-35.248;149.138;2022-12-18T16:38:42;11.70;77.60
39931;DHT22;26635;-35.248;149.138;2022-12-18T16:41:18;11.60;77.60
39931;DHT22;26635;-35.248;149.138;2022-12-18T16:44:02;11.60;78.90
39931;DHT22;26635;-35.248;149.138;2022-12-18T16:46:35;11.50;78.90
39931;DHT22;26635;-35.248;149.138;2022-12-18T16:49:06;11.50;79.40
39931;DHT22;26635;-35.248;149.138;2022-12-18T16:51:36;11.40;80.30
39931;DHT22;26635;-35.248;149.138;2022-12-18T16:54:07;11.40;79.70
39931;DHT22;26635;-35.248;149.138;2022-12-18T16:56:44;11.30;80.10
39931;DHT22;26635;-35.248;149.138;2022-12-18T16:59:16;11.30;80.00
39931;DHT22;26635;-35.248;149.138;2022-12-18T17:01:47;11.30;79.80
39931;DHT22;26635;-35.248;149.138;2022-12-18T17:04:18;11.20;80.60
39931;DHT22;26635;-35.248;149.138;2022-12-18T17:06:49;11.20;80.60
39931;DHT22;26635;-35.248;149.138;2022-12-18T17:09:22;11.20;80.80
39931;DHT22;26635;-35.248;149.138;2022-12-18T17:11:54;11.10;81.10
39931;DHT22;26635;-35.248;149.138;2022-12-18T17:14:32;11.00;80.80
39931;DHT22;26635;-35.248;149.138;2022-12-18T17:17:03;11.00;81.00